Tiempo atmosférico en la estación meteorológica de Benabarre, Huesca (765 m.)



Fecha
DESCASC
Temp. máxima en grados centígrados (hora)
DESCASC
Temp. mínima en grados centígrados (hora)
DESCASC
Temp. media en grados centígrados
DESCASC
Racha de viento máxima en m/sg (hora)
DESCASC
Velocidad máxima media en intervalos de 10 minutos(hora)
DESCASC
Precipitaciones diarias en mm
DESCASC
Precipitaciones de 00:00 a 06:00 en mm
DESCASC
Precipitaciones de 06:00 a 12:00 en mm
DESCASC
Precipitaciones de 12:00 a 18:00 en mm
DESCASC
Precipitaciones de 18:00 a 24:00 en mm
DESCASC
14-12-2019 13 (15:40) 4.4 (23:59) 8.7 11.39 (03:50) 8.33 (03:50) 0 0 0 0 0
13-12-2019 13.2 (15:30) 2.5 (02:20) 7.8 20.28 (14:10) 12.5 (14:10) 1.8 1.4 0.4 0 0
12-12-2019 6.8 (13:00) 2.7 (05:20) 4.8 9.44 (17:40) 6.11 (07:10) 7.2 0 0 4 3.2
11-12-2019 7.7 (12:30) 1.1 (00:00) 4.4 10.56 (20:40) 7.22 (20:40) 0 0 0 0 0
10-12-2019 10.1 (15:20) 0.3 (00:00) 5.2 7.22 (01:10) 5.56 (01:10) 0 0 0 0 0
09-12-2019 12 (15:00) 2.1 (00:00) 7 14.17 (15:30) 8.61 (15:20) 0 0 0 0 0
08-12-2019 10.9 (13:40) 0.9 (00:00) 5.9 8.33 (15:40) 5.83 (15:50) 0 0 0 0 0
07-12-2019 11 (13:30) 0.5 (00:00) 5.8 4.72 (15:50) 2.78 (16:30) 0 0 0 0 0
06-12-2019 11.3 (15:30) 2.4 (00:00) 6.9 6.11 (14:20) 4.44 (14:20) 0 0 0 0 0
05-12-2019 10.5 (14:30) 4 (00:00) 7.3 6.39 (00:20) 4.72 (00:10) 1.6 1.6 0 0 0
04-12-2019 9 (17:10) 2.3 (00:00) 5.6 8.61 (07:40) 6.39 (07:00) 0 0 0 0 0
03-12-2019 7.7 (15:10) -2 (-00:0) 2.8 5 (10:30) 3.06 (08:40) 0 0 0 0 0
02-12-2019 10.6 (13:40) 0.4 (00:00) 5.5 5.83 (14:30) 3.33 (08:20) 0 0 0 0 0
01-12-2019 9.8 (15:10) 1.9 (00:00) 5.9 10.83 (00:50) 6.11 (01:10) 3.2 3.2 0 0 0
30-11-2019 12.2 (16:30) 2.5 (00:00) 7.3 10.56 (22:10) 4.72 (22:20) 1.4 0 0 0 1.4
29-11-2019 14 (15:10) 4.1 (00:00) 9 6.67 (14:30) 4.44 (14:40) 0 0 0 0 0
28-11-2019 12.5 (14:50) 5.3 (00:00) 8.9 9.72 (21:50) 6.11 (12:30) 0.4 0.4 0 0 0
27-11-2019 11.9 (14:20) 7.7 (00:00) 9.8 11.39 (09:10) 7.22 (09:10) 4 4 0 0 0
26-11-2019 13.1 (12:30) 2.9 (00:00) 8 5.28 (13:10) 3.61 (13:00) 0.6 0 0 0 0.6
25-11-2019 12.7 (13:50) 1.7 (00:00) 7.2 6.11 (14:00) 4.44 (03:40) 0 0 0 0 0
24-11-2019 10.6 (14:40) 2 (00:00) 6.3 7.78 (04:30) 6.11 (04:30) 0 0 0 0 0
23-11-2019 9.6 (00:00) 3.1 (00:00) 6.4 12.78 (14:50) 7.78 (14:30) 1 0.6 0.4 0 0
22-11-2019 9.6 (23:30) 2.1 (00:00) 5.9 11.11 (18:40) 6.39 (13:50) 9.8 0 0 3 6.8
21-11-2019 9.4 (15:30) 1.6 (00:00) 5.5 5.83 (12:20) 3.33 (12:20) 0 0 0 0 0
20-11-2019 9.9 (14:20) -2.3 (-00:0) 3.8 3.89 (16:30) 2.5 (06:50) 0 0 0 0 0
19-11-2019 8.9 (15:30) -2.8 (-00:0) 3 5.56 (13:30) 3.89 (00:10) 0 0 0 0 0
18-11-2019 9.7 (12:50) 0 (00:00) 4.8 6.39 (13:30) 4.17 (23:50) 0 0 0 0 0
17-11-2019 7.3 (15:40) -1.9 (-00:0) 2.7 7.22 (17:00) 4.17 (17:00) 0 0 0 0 0
16-11-2019 5.3 (12:10) -2.9 (-00:0) 1.2 7.78 (18:30) 5.28 (18:50) 0 0 0 0 0
15-11-2019 4.4 (11:30) -2.2 (-00:0) 1.1 7.5 (13:40) 4.44 (13:40) 0.6 0 0 0.6 0

Gráficas

Temp. máximas Temp. mínimas Temp. medias Precipitaciones Rachas de viento máximas Velocidades máximas media en intervalos de 10 minutos

Datos horarios

Fecha y hora oficial Temperatura (ºC) Velocidad del viento (km/h) Dirección del viento Racha (km/h) Dirección de racha Precipitación (mm) Presión (hPa) Tendencia (hPa) Humedad (%)
2019-12-14 23:00:00 5.3 3 Nordeste 10 Norte 0 -- -- 92
2019-12-14 22:00:00 5.7 2 Nordeste 9 Norte 0 -- -- 90
2019-12-14 21:00:00 6.3 0 Calma 7 Norte 0 -- -- 88
2019-12-14 20:00:00 6.1 2 Nordeste 13 Oeste 0 -- -- 88
2019-12-14 19:00:00 8.2 11 Oeste 16 Noroeste 0 -- -- 80
2019-12-14 18:00:00 9.1 9 Noroeste 14 Oeste 0 -- -- 79
2019-12-14 17:00:00 11.5 6 Sudoeste 19 Sudoeste 0 -- -- 71
2019-12-14 16:00:00 12.7 10 Oeste 18 Oeste 0 -- -- 66
2019-12-14 15:00:00 12.9 5 Oeste 10 Sudoeste 0 -- -- 68
2019-12-14 14:00:00 11.9 6 Noroeste 14 Oeste 0 -- -- 70
2019-12-14 13:00:00 11.4 9 Oeste 14 Noroeste 0 -- -- 73
2019-12-14 12:00:00 11.1 8 Oeste 15 Oeste 0 -- -- 72
2019-12-14 11:00:00 10.9 2 Sudoeste 10 Sudoeste 0 -- -- 75
2019-12-14 10:00:00 8.3 0 Calma 8 Norte 0 -- -- 85
2019-12-14 09:00:00 5.5 4 Norte 16 Noroeste 0 -- -- 90
2019-12-14 08:00:00 5.7 8 Noroeste 15 Noroeste 0 -- -- 87
2019-12-14 07:00:00 5.5 11 Noroeste 16 Noroeste 0 -- -- 91
2019-12-14 06:00:00 6.7 8 Norte 15 Oeste 0 -- -- 85
2019-12-14 05:00:00 9.2 14 Oeste 33 Oeste 0 -- -- 75
2019-12-14 04:00:00 9.9 22 Noroeste 41 Oeste 0 -- -- 73
2019-12-14 03:00:00 9.4 22 Noroeste 32 Noroeste 0 -- -- 74
2019-12-14 02:00:00 10.2 18 Oeste 36 Noroeste 0 -- -- 68
2019-12-14 01:00:00 10.7 23 Noroeste 37 Oeste 0 -- -- 65
2019-12-14 00:00:00 10.4 18 Noroeste 27 Oeste 0 -- -- 68
2019-12-13 23:00:00 11.2 18 Noroeste 32 Noroeste 0 -- -- 69
2019-12-13 22:00:00 11.2 15 Noroeste 52 Noroeste 0 -- -- 77
2019-12-13 21:00:00 11.5 26 Noroeste 46 Noroeste 0 -- -- 77
2019-12-13 20:00:00 10.9 21 Noroeste 35 Noroeste 0 -- -- 80
2019-12-13 19:00:00 10.6 21 Noroeste 32 Oeste 0 -- -- 81
2019-12-13 18:00:00 10.9 20 Noroeste 45 Noroeste 0 -- -- 76
2019-12-13 17:00:00 12.3 27 Oeste 52 Oeste 0 -- -- 69
2019-12-13 16:00:00 13 37 Oeste 63 Oeste 0 -- -- 67
2019-12-13 15:00:00 13 33 Noroeste 73 Noroeste 0 -- -- 69
2019-12-13 14:00:00 13 38 Oeste 66 Noroeste 0 -- -- 68
2019-12-13 13:00:00 12.8 36 Oeste 65 Oeste 0 -- -- 70
2019-12-13 12:00:00 11.7 27 Oeste 52 Oeste 0 -- -- 82
2019-12-13 11:00:00 11 29 Oeste 50 Oeste 0 -- -- 89
2019-12-13 10:00:00 8.7 19 Noroeste 34 Noroeste 0 -- -- 100
2019-12-13 09:00:00 5.6 17 Noroeste 27 Oeste 0.2 -- -- 100
2019-12-13 08:00:00 4.8 13 Noroeste 22 Oeste 0 -- -- 99
2019-12-13 07:00:00 3.7 9 Noroeste 14 Noroeste 0.2 -- -- 98
2019-12-13 06:00:00 3.3 7 Noroeste 15 Oeste 0.4 -- -- 99
2019-12-13 05:00:00 3.1 9 Noroeste 12 Oeste 0 -- -- 99
2019-12-13 04:00:00 2.8 10 Noroeste 13 Oeste 0.2 -- -- 99
2019-12-13 03:00:00 2.6 9 Noroeste 14 Noroeste 0.4 -- -- 99
2019-12-13 02:00:00 2.6 7 Oeste 13 Oeste 0.4 -- -- 99
2019-12-13 01:00:00 2.6 9 Noroeste 11 Noroeste 0 -- -- 99
2019-12-13 00:00:00 2.7 7 Noroeste 10 Noroeste 0.4 -- -- 98
2019-12-12 23:00:00 2.9 4 Oeste 11 Noroeste 0.2 -- -- 98
2019-12-12 22:00:00 2.9 5 Noroeste 18 Noroeste 0.2 -- -- 98
2019-12-12 21:00:00 3.1 9 Noroeste 20 Oeste 0.4 -- -- 98
2019-12-12 20:00:00 3.3 8 Oeste 22 Oeste 0.6 -- -- 98
2019-12-12 19:00:00 3.4 19 Oeste 33 Oeste 1.4 -- -- 96
2019-12-12 18:00:00 3.9 18 Oeste 34 Oeste 2.6 -- -- 94
2019-12-12 17:00:00 4.6 17 Oeste 31 Oeste 1 -- -- 93
2019-12-12 16:00:00 5.1 19 Oeste 30 Oeste 0.2 -- -- 88
2019-12-12 15:00:00 5.4 14 Oeste 28 Oeste 0.2 -- -- 88
2019-12-12 14:00:00 6.5 17 Oeste 33 Oeste 0 -- -- 78
2019-12-12 13:00:00 6.8 17 Noroeste 28 Noroeste 0 -- -- 79
2019-12-12 12:00:00 6.4 13 Oeste 21 Oeste 0 -- -- 78
2019-12-12 11:00:00 5.9 9 Oeste 19 Oeste 0 -- -- 78
2019-12-12 10:00:00 4.6 9 Norte 15 Norte 0 -- -- 81
2019-12-12 09:00:00 2.9 9 Oeste 19 Noroeste 0 -- -- 86
2019-12-12 08:00:00 3.6 12 Noroeste 28 Norte 0 -- -- 83
2019-12-12 07:00:00 4 20 Noroeste 28 Noroeste 0 -- -- 81
2019-12-12 06:00:00 3.2 10 Noroeste 15 Noroeste 0 -- -- 84
2019-12-12 05:00:00 3 14 Noroeste 21 Noroeste 0 -- -- 85
2019-12-12 04:00:00 3.1 16 Noroeste 23 Noroeste 0 -- -- 84
2019-12-12 03:00:00 3.4 16 Noroeste 27 Noroeste 0 -- -- 81
2019-12-12 02:00:00 3.1 12 Noroeste 19 Noroeste 0 -- -- 82
2019-12-12 01:00:00 3.6 9 Oeste 25 Oeste 0 -- -- 79
2019-12-12 00:00:00 3.9 6 Sudoeste 28 Oeste 0 -- -- 76
2019-12-11 23:00:00 4.7 16 Noroeste 35 Noroeste 0 -- -- 72
2019-12-11 22:00:00 4.4 17 Noroeste 37 Oeste 0 -- -- 71
2019-12-11 21:00:00 4.5 15 Noroeste 38 Oeste 0 -- -- 69
2019-12-11 20:00:00 5.1 21 Noroeste 36 Oeste 0 -- -- 68
2019-12-11 19:00:00 5.1 19 Noroeste 32 Noroeste 0 -- -- 72
2019-12-11 18:00:00 5.9 17 Noroeste 30 Oeste 0 -- -- 79
2019-12-11 17:00:00 6.9 13 Noroeste 22 Oeste 0 -- -- 83
2019-12-11 16:00:00 6.6 15 Oeste 28 Oeste 0 -- -- 87
2019-12-11 15:00:00 6 14 Noroeste 28 Noroeste 0 -- -- 90
2019-12-11 14:00:00 5.8 15 Noroeste 23 Noroeste 0 -- -- 86
2019-12-11 13:00:00 6.9 14 Noroeste 26 Oeste 0 -- -- 74
2019-12-11 12:00:00 7.1 9 Noroeste 14 Noroeste 0 -- -- 70
2019-12-11 11:00:00 5.7 3 Noroeste 8 Noroeste 0 -- -- 77
2019-12-11 10:00:00 4.5 3 Noroeste 6 Norte 0 -- -- 81
2019-12-11 09:00:00 3.1 0 Calma 10 Norte 0 -- -- 82
2019-12-11 08:00:00 1.1 8 Norte 9 Norte 0 -- -- 88
2019-12-11 07:00:00 1.8 0 Calma 8 Norte 0 -- -- 86
2019-12-11 06:00:00 2.3 5 Norte 8 Norte 0 -- -- 86
2019-12-11 05:00:00 2.6 3 Sudeste 6 Este 0 -- -- 86
2019-12-11 04:00:00 2.7 2 Nordeste 8 Norte 0 -- -- 86
2019-12-11 03:00:00 2.3 2 Nordeste 9 Norte 0 -- -- 85
2019-12-11 02:00:00 1.5 8 Norte 10 Norte 0 -- -- 85
2019-12-11 01:00:00 1.9 4 Nordeste 10 Norte 0 -- -- 84
2019-12-11 00:00:00 2 4 Nordeste 11 Norte 0 -- -- 84
2019-12-10 23:00:00 2.8 5 Norte 10 Norte 0 -- -- 81
2019-12-10 22:00:00 3.6 6 Noroeste 12 Norte 0 -- -- 81
2019-12-10 21:00:00 3.4 10 Norte 14 Norte 0 -- -- 85
2019-12-10 20:00:00 3 8 Norte 12 Norte 0 -- -- 86
2019-12-10 19:00:00 2.8 4 Nordeste 13 Norte 0 -- -- 86
2019-12-10 18:00:00 4.9 8 Norte 12 Norte 0 -- -- 82
2019-12-10 17:00:00 8 5 Oeste 18 Oeste 0 -- -- 74
2019-12-10 16:00:00 9.4 12 Oeste 18 Oeste 0 -- -- 66
2019-12-10 15:00:00 9.4 6 Sudeste 10 Este 0 -- -- 62
2019-12-10 14:00:00 8.2 2 Sudoeste 9 Este 0 -- -- 65
2019-12-10 13:00:00 6.5 5 Sudeste 15 Este 0 -- -- 67
2019-12-10 12:00:00 7.4 9 Sudeste 14 Sudeste 0 -- -- 63
2019-12-10 11:00:00 8.9 3 Sudeste 7 Este 0 -- -- 56
2019-12-10 10:00:00 4.6 6 Este 9 Norte 0 -- -- 70
2019-12-10 09:00:00 0.7 4 Norte 13 Norte 0 -- -- 80
2019-12-10 08:00:00 1.3 6 Sudeste 13 Noroeste 0 -- -- 79
2019-12-10 07:00:00 2.6 7 Noroeste 12 Oeste 0 -- -- 78
2019-12-10 06:00:00 3.2 12 Noroeste 18 Noroeste 0 -- -- 73
2019-12-10 05:00:00 0.4 10 Norte 15 Norte 0 -- -- 84
2019-12-10 04:00:00 1.5 6 Norte 11 Norte 0 -- -- 81
2019-12-10 03:00:00 2.5 6 Sudeste 14 Noroeste 0 -- -- 79
2019-12-10 02:00:00 4.1 13 Noroeste 26 Noroeste 0 -- -- 74
2019-12-10 01:00:00 2.2 11 Noroeste 19 Noroeste 0 -- -- 80
2019-12-10 00:00:00 4 0 Calma 20 Noroeste 0 -- -- 72
2019-12-09 23:00:00 5.2 19 Noroeste 26 Noroeste 0 -- -- 68
2019-12-09 22:00:00 5.1 19 Noroeste 25 Noroeste 0 -- -- 69
2019-12-09 21:00:00 5.6 13 Noroeste 23 Noroeste 0 -- -- 67
2019-12-09 20:00:00 6.3 16 Oeste 26 Noroeste 0 -- -- 67
2019-12-09 19:00:00 6.7 14 Noroeste 28 Norte 0 -- -- 66
2019-12-09 18:00:00 7.8 16 Noroeste 23 Noroeste 0 -- -- 63
2019-12-09 17:00:00 9.8 19 Oeste 38 Oeste 0 -- -- 58
2019-12-09 16:00:00 11.9 16 Oeste 51 Oeste 0 -- -- 44
2019-12-09 15:00:00 12 31 Oeste 47 Oeste 0 -- -- 47
2019-12-09 14:00:00 11 24 Oeste 46 Oeste 0 -- -- 61
2019-12-09 13:00:00 10.6 27 Oeste 46 Oeste 0 -- -- 63
2019-12-09 12:00:00 8.9 15 Noroeste 24 Oeste 0 -- -- 75
2019-12-09 11:00:00 7.2 13 Oeste 24 Oeste 0 -- -- 79
2019-12-09 10:00:00 5.3 9 Noroeste 19 Noroeste 0 -- -- 86
2019-12-09 09:00:00 3.2 15 Noroeste 23 Noroeste 0 -- -- 91
2019-12-09 08:00:00 2.3 16 Noroeste 27 Oeste 0 -- -- 97
2019-12-09 07:00:00 2.1 14 Noroeste 17 Noroeste 0 -- -- 100
2019-12-09 06:00:00 3 6 Norte 17 Oeste 0 -- -- 100
2019-12-09 05:00:00 3.9 11 Oeste 18 Noroeste 0 -- -- 100
2019-12-09 04:00:00 4.1 10 Noroeste 21 Noroeste 0 -- -- 100
2019-12-09 03:00:00 2.9 7 Norte 9 Norte 0 -- -- 99
2019-12-09 02:00:00 4.5 5 Noroeste 14 Noroeste 0 -- -- 99
2019-12-09 01:00:00 4.8 2 Sudeste 12 Norte 0 -- -- 99
2019-12-09 00:00:00 5.7 8 Norte 15 Oeste 0 -- -- 99
2019-12-08 23:00:00 6.3 0 Calma 6 Noroeste 0 -- -- 99
2019-12-08 22:00:00 6.5 3 Noroeste 11 Noroeste 0 -- -- 98
2019-12-08 21:00:00 6.4 0 Calma 7 Noroeste 0 -- -- 98
2019-12-08 20:00:00 6.5 5 Noroeste 12 Noroeste 0 -- -- 98
2019-12-08 19:00:00 6.5 9 Noroeste 15 Oeste 0 -- -- 97
2019-12-08 18:00:00 6.3 10 Noroeste 19 Noroeste 0 -- -- 98
2019-12-08 17:00:00 6.1 13 Noroeste 24 Noroeste 0 -- -- 98
2019-12-08 16:00:00 5.3 18 Noroeste 30 Noroeste 0 -- -- 96
2019-12-08 15:00:00 8.9 15 Noroeste 22 Oeste 0 -- -- 81
2019-12-08 14:00:00 9.7 13 Noroeste 16 Noroeste 0 -- -- 77
2019-12-08 13:00:00 10.6 6 Oeste 15 Oeste 0 -- -- 75
2019-12-08 12:00:00 9.9 3 Sudoeste 7 Oeste 0 -- -- 78
2019-12-08 11:00:00 7.3 2 Oeste 8 Sudoeste 0 -- -- 87
2019-12-08 10:00:00 4.7 4 Oeste 9 Norte 0 -- -- 98
2019-12-08 09:00:00 1.6 6 Norte 10 Noroeste 0 -- -- 98
2019-12-08 08:00:00 0.9 8 Norte 10 Norte 0 -- -- 98
2019-12-08 07:00:00 1.3 8 Noroeste 12 Norte 0 -- -- 98
2019-12-08 06:00:00 1.3 9 Norte 12 Noroeste 0 -- -- 98
2019-12-08 05:00:00 1.7 6 Noroeste 9 Norte 0 -- -- 98
2019-12-08 04:00:00 1.7 3 Nordeste 10 Norte 0 -- -- 97
2019-12-08 03:00:00 2.3 8 Norte 11 Norte 0 -- -- 97
2019-12-08 02:00:00 2.2 6 Norte 11 Norte 0 -- -- 97
2019-12-08 01:00:00 2.5 9 Norte 12 Norte 0 -- -- 98
2019-12-08 00:00:00 2.9 8 Noroeste 10 Noroeste 0 -- -- 98
2019-12-07 23:00:00 2.6 5 Norte 9 Norte 0 -- -- 97
2019-12-07 22:00:00 2.7 4 Norte 11 Norte 0 -- -- 96
2019-12-07 21:00:00 3.1 8 Norte 10 Norte 0 -- -- 95
2019-12-07 20:00:00 5.3 2 Oeste 12 Noroeste 0 -- -- 95
2019-12-07 19:00:00 6 8 Noroeste 12 Noroeste 0 -- -- 93
2019-12-07 18:00:00 7 5 Noroeste 15 Oeste 0 -- -- 90
2019-12-07 17:00:00 9.1 8 Oeste 14 Noroeste 0 -- -- 82
2019-12-07 16:00:00 10 10 Oeste 17 Noroeste 0 -- -- 79
2019-12-07 15:00:00 10.2 10 Noroeste 13 Oeste 0 -- -- 76
2019-12-07 14:00:00 10.5 6 Oeste 10 Noroeste 0 -- -- 76
2019-12-07 13:00:00 10.6 6 Sudeste 10 Sudeste 0 -- -- 74
2019-12-07 12:00:00 9.2 4 Sudeste 9 Sudeste 0 -- -- 83
2019-12-07 11:00:00 7 4 Sudeste 7 Sudeste 0 -- -- 100
2019-12-07 10:00:00 4.3 2 Sur 5 Noroeste 0 -- -- 100
2019-12-07 09:00:00 1.7 0 Calma 8 Norte 0 -- -- 100
2019-12-07 08:00:00 1 3 Noroeste 9 Noroeste 0 -- -- 99
2019-12-07 07:00:00 2 5 Noroeste 9 Norte 0 -- -- 100
2019-12-07 06:00:00 2.6 6 Norte 8 Norte 0 -- -- 99
2019-12-07 05:00:00 3.1 4 Noroeste 8 Norte 0 -- -- 99
2019-12-07 04:00:00 3.4 5 Norte 8 Norte 0 -- -- 99
2019-12-07 03:00:00 4.5 3 Sudeste 7 Sudeste 0 -- -- 99
2019-12-07 02:00:00 4.6 6 Oeste 10 Norte 0 -- -- 100
2019-12-07 01:00:00 4 7 Norte 10 Norte 0 -- -- 99
2019-12-07 00:00:00 3.1 6 Norte 8 Norte 0 -- -- 98
2019-12-06 23:00:00 2.7 6 Norte 8 Norte 0 -- -- 97
2019-12-06 22:00:00 3.9 4 Nordeste 9 Norte 0 -- -- 97
2019-12-06 21:00:00 3.8 4 Norte 12 Noroeste 0 -- -- 96
2019-12-06 20:00:00 4.2 8 Norte 11 Norte 0 -- -- 95
2019-12-06 19:00:00 5.5 4 Norte 8 Norte 0 -- -- 93
2019-12-06 18:00:00 8.6 3 Oeste 14 Noroeste 0 -- -- 86
2019-12-06 17:00:00 10.3 11 Noroeste 17 Noroeste 0 -- -- 79
2019-12-06 16:00:00 11.2 11 Oeste 18 Oeste 0 -- -- 74
2019-12-06 15:00:00 10.7 10 Oeste 22 Noroeste 0 -- -- 76
2019-12-06 14:00:00 8.9 14 Noroeste 19 Noroeste 0 -- -- 83
2019-12-06 13:00:00 10.3 7 Noroeste 16 Oeste 0 -- -- 78
2019-12-06 12:00:00 10.2 8 Oeste 13 Oeste 0 -- -- 79
2019-12-06 11:00:00 8.7 3 Sur 6 Este 0 -- -- 87
2019-12-06 10:00:00 6.1 0 Calma 5 Este 0 -- -- 97
2019-12-06 09:00:00 3.1 3 Norte 8 Noroeste 0 -- -- 97
2019-12-06 08:00:00 2.8 0 Calma 11 Norte 0 -- -- 97
2019-12-06 07:00:00 2.9 2 Nordeste 9 Norte 0 -- -- 96
2019-12-06 06:00:00 3.2 6 Norte 9 Norte 0 -- -- 96
2019-12-06 05:00:00 4.2 7 Norte 8 Norte 0 -- -- 97
2019-12-06 04:00:00 4.5 7 Norte 9 Norte 0 -- -- 97
2019-12-06 03:00:00 4.5 6 Norte 9 Noroeste 0 -- -- 98
2019-12-06 02:00:00 3.9 6 Noroeste 12 Norte 0 -- -- 97
2019-12-06 01:00:00 3.4 9 Norte 12 Norte 0 -- -- 97
2019-12-06 00:00:00 4 9 Norte 11 Norte 0 -- -- 96
2019-12-05 23:00:00 4.6 7 Norte 10 Norte 0 -- -- 96
2019-12-05 22:00:00 5.4 7 Norte 13 Norte 0 -- -- 96
2019-12-05 21:00:00 5.8 3 Nordeste 13 Norte 0 -- -- 95
2019-12-05 20:00:00 5.9 7 Norte 12 Norte 0 -- -- 96
2019-12-05 19:00:00 6.8 6 Norte 10 Norte 0 -- -- 94
2019-12-05 18:00:00 8.6 3 Este 10 Este 0 -- -- 89
2019-12-05 17:00:00 9.5 6 Sudeste 14 Este 0 -- -- 85
2019-12-05 16:00:00 10.4 5 Este 9 Este 0 -- -- 73
2019-12-05 15:00:00 10.3 5 Oeste 16 Oeste 0 -- -- 72
2019-12-05 14:00:00 10.1 10 Noroeste 18 Oeste 0 -- -- 75
2019-12-05 13:00:00 8.7 13 Noroeste 18 Noroeste 0 -- -- 87
2019-12-05 12:00:00 7.9 6 Noroeste 9 Noroeste 0 -- -- 93
2019-12-05 11:00:00 7.3 7 Noroeste 12 Noroeste 0 -- -- 94
2019-12-05 10:00:00 6.8 5 Noroeste 10 Norte 0 -- -- 97
2019-12-05 09:00:00 6.1 4 Norte 8 Norte 0 -- -- 97
2019-12-05 08:00:00 5.9 4 Norte 9 Noroeste 0 -- -- 97
2019-12-05 07:00:00 6 10 Noroeste 13 Noroeste 0 -- -- 97
2019-12-05 06:00:00 6.2 6 Noroeste 13 Noroeste 0 -- -- 98
2019-12-05 05:00:00 6.3 12 Noroeste 14 Noroeste 0.4 -- -- 97
2019-12-05 04:00:00 6.5 5 Noroeste 6 Noroeste 0.4 -- -- 96
2019-12-05 03:00:00 6.6 4 Norte 10 Sudeste 0.4 -- -- 95
2019-12-05 02:00:00 6.9 6 Sudeste 18 Este 0.2 -- -- 92
2019-12-05 01:00:00 7.4 17 Este 23 Este 0.2 -- -- 90
2019-12-05 00:00:00 8 21 Este 27 Este 0 -- -- 84
2019-12-04 23:00:00 6.9 5 Este 13 Este 0 -- -- 87
2019-12-04 22:00:00 6.8 7 Nordeste 12 Nordeste 0 -- -- 85
2019-12-04 21:00:00 7.9 9 Sudeste 24 Este 0 -- -- 79
2019-12-04 20:00:00 7.7 4 Sudeste 14 Nordeste 0 -- -- 81
2019-12-04 19:00:00 8.1 13 Este 19 Este 0 -- -- 79
2019-12-04 18:00:00 8.2 15 Nordeste 19 Nordeste 0 -- -- 77
2019-12-04 17:00:00 8.9 10 Este 13 Este 0 -- -- 66
2019-12-04 16:00:00 8.7 2 Noroeste 11 Oeste 0 -- -- 72
2019-12-04 15:00:00 8.3 6 Noroeste 8 Noroeste 0 -- -- 73
2019-12-04 14:00:00 7.8 3 Oeste 13 Noroeste 0 -- -- 76
2019-12-04 13:00:00 7.5 11 Noroeste 14 Noroeste 0 -- -- 69
2019-12-04 12:00:00 7.5 10 Norte 16 Norte 0 -- -- 73
2019-12-04 11:00:00 6.2 5 Norte 9 Oeste 0 -- -- 76
2019-12-04 10:00:00 4.8 5 Sudoeste 13 Oeste 0 -- -- 78
2019-12-04 09:00:00 3.6 12 Nordeste 18 Nordeste 0 -- -- 79
2019-12-04 08:00:00 5.2 10 Sudoeste 31 Nordeste 0 -- -- 74
2019-12-04 07:00:00 5.1 23 Este 30 Nordeste 0 -- -- 73
2019-12-04 06:00:00 2.7 4 Noroeste 14 Nordeste 0 -- -- 87
2019-12-04 05:00:00 2.6 4 Oeste 9 Noroeste 0 -- -- 88
2019-12-04 04:00:00 3.7 8 Oeste 17 Norte 0 -- -- 86
2019-12-04 03:00:00 2.8 8 Noroeste 10 Norte 0 -- -- 92
2019-12-04 02:00:00 3.1 6 Noroeste 12 Norte 0 -- -- 92
2019-12-04 01:00:00 3 6 Noroeste 8 Noroeste 0 -- -- 92
2019-12-04 00:00:00 3.2 6 Norte 15 Norte 0 -- -- 91
2019-12-03 23:00:00 1.9 7 Norte 11 Norte 0 -- -- 93
2019-12-03 22:00:00 1.2 9 Norte 12 Norte 0 -- -- 94
2019-12-03 21:00:00 2 7 Norte 9 Norte 0 -- -- 92
2019-12-03 20:00:00 2.9 8 Noroeste 12 Noroeste 0 -- -- 93
2019-12-03 19:00:00 2.5 10 Norte 13 Norte 0 -- -- 92
2019-12-03 18:00:00 3.3 10 Noroeste 13 Noroeste 0 -- -- 92
2019-12-03 17:00:00 6.8 0 Calma 9 Sudeste 0 -- -- 77
2019-12-03 16:00:00 7.2 7 Sudeste 12 Sudeste 0 -- -- 75
2019-12-03 15:00:00 7.6 7 Sudeste 13 Sur 0 -- -- 75
2019-12-03 14:00:00 6.5 4 Sudeste 12 Sudeste 0 -- -- 80
2019-12-03 13:00:00 5.2 2 Sur 9 Sudeste 0 -- -- 97
2019-12-03 12:00:00 2.3 4 Este 10 Este 0 -- -- 100
2019-12-03 11:00:00 1.2 7 Sudeste 18 Sudeste 0 -- -- 99
2019-12-03 10:00:00 1.2 9 Este 16 Este 0 -- -- 99
2019-12-03 09:00:00 -0.1 9 Este 14 Este 0 -- -- 99
2019-12-03 08:00:00 -0.4 7 Sudeste 12 Sudeste 0 -- -- 98
2019-12-03 07:00:00 -1.3 6 Este 9 Este 0 -- -- 98
2019-12-03 06:00:00 -1.7 5 Este 9 Norte 0 -- -- 94
2019-12-03 05:00:00 -1.1 2 Nordeste 10 Norte 0 -- -- 94
2019-12-03 04:00:00 -0.8 8 Norte 10 Norte 0 -- -- 94
2019-12-03 03:00:00 -0.3 3 Nordeste 8 Norte 0 -- -- 93
2019-12-03 02:00:00 0.5 2 Sudeste 12 Norte 0 -- -- 91
2019-12-03 01:00:00 0.9 10 Norte 12 Norte 0 -- -- 91
2019-12-03 00:00:00 1.6 8 Noroeste 13 Norte 0 -- -- 92
2019-12-02 23:00:00 1.7 6 Norte 12 Norte 0 -- -- 93
2019-12-02 22:00:00 2.3 9 Norte 12 Norte 0 -- -- 92
2019-12-02 21:00:00 2.5 5 Norte 10 Norte 0 -- -- 91
2019-12-02 20:00:00 4 6 Noroeste 10 Noroeste 0 -- -- 88
2019-12-02 19:00:00 4 8 Norte 12 Noroeste 0 -- -- 87
2019-12-02 18:00:00 6.6 6 Noroeste 12 Oeste 0 -- -- 78
2019-12-02 17:00:00 9.4 10 Noroeste 17 Noroeste 0 -- -- 65
2019-12-02 16:00:00 10.5 8 Oeste 17 Oeste 0 -- -- 55
2019-12-02 15:00:00 10.5 11 Oeste 21 Oeste 0 -- -- 56
2019-12-02 14:00:00 10.5 10 Noroeste 16 Oeste 0 -- -- 56
2019-12-02 13:00:00 10.3 6 Oeste 12 Oeste 0 -- -- 56
2019-12-02 12:00:00 9.5 6 Sudoeste 14 Oeste 0 -- -- 65
2019-12-02 11:00:00 8.6 8 Nordeste 12 Nordeste 0 -- -- 60
2019-12-02 10:00:00 5.3 6 Oeste 11 Norte 0 -- -- 84
2019-12-02 09:00:00 2 8 Norte 16 Norte 0 -- -- 86
2019-12-02 08:00:00 0.6 6 Norte 15 Norte 0 -- -- 91
2019-12-02 07:00:00 0.7 10 Norte 14 Norte 0 -- -- 91
2019-12-02 06:00:00 0.9 9 Norte 12 Norte 0 -- -- 93
2019-12-02 05:00:00 1.1 9 Norte 13 Norte 0 -- -- 95
2019-12-02 04:00:00 1.8 5 Norte 11 Norte 0 -- -- 94
2019-12-02 03:00:00 1.8 8 Norte 12 Nordeste 0 -- -- 96
2019-12-02 02:00:00 1.6 10 Nordeste 13 Nordeste 0 -- -- 96
2019-12-02 01:00:00 1.9 7 Nordeste 15 Nordeste 0 -- -- 98
2019-12-02 00:00:00 2.6 5 Este 12 Nordeste 0 -- -- 97
2019-12-01 23:00:00 2.9 2 Nordeste 12 Norte 0 -- -- 95
2019-12-01 22:00:00 3.1 6 Norte 9 Norte 0 -- -- 96
2019-12-01 21:00:00 2.8 3 Nordeste 9 Norte 0 -- -- 96
2019-12-01 20:00:00 3.3 4 Norte 9 Norte 0 -- -- 93
2019-12-01 19:00:00 4.3 6 Noroeste 9 Noroeste 0 -- -- 93
2019-12-01 18:00:00 6.5 4 Norte 10 Oeste 0 -- -- 84
2019-12-01 17:00:00 9.1 7 Oeste 15 Noroeste 0 -- -- 74
2019-12-01 16:00:00 9.8 9 Oeste 15 Oeste 0 -- -- 70
2019-12-01 15:00:00 9.7 8 Oeste 18 Oeste 0 -- -- 67
2019-12-01 14:00:00 9.5 10 Oeste 15 Oeste 0 -- -- 73
2019-12-01 13:00:00 8.9 6 Oeste 12 Oeste 0 -- -- 75
2019-12-01 12:00:00 7.6 8 Noroeste 12 Noroeste 0 -- -- 87
2019-12-01 11:00:00 6.3 4 Noroeste 14 Noroeste 0 -- -- 97
2019-12-01 10:00:00 5.1 7 Noroeste 10 Oeste 0 -- -- 97
2019-12-01 09:00:00 2.4 5 Norte 9 Norte 0 -- -- 98
2019-12-01 08:00:00 2.2 4 Norte 11 Norte 0 -- -- 97
2019-12-01 07:00:00 3.3 4 Norte 8 Sudoeste 0 -- -- 97
2019-12-01 06:00:00 3.4 7 Norte 12 Norte 0 -- -- 96
2019-12-01 05:00:00 4.3 8 Noroeste 13 Noroeste 0 -- -- 93
2019-12-01 04:00:00 5.9 7 Noroeste 13 Este 0.2 -- -- 94
2019-12-01 03:00:00 6.1 8 Este 14 Este 0.2 -- -- 93
2019-12-01 02:00:00 7.3 8 Noroeste 37 Noroeste 0.4 -- -- 95
2019-12-01 01:00:00 7.5 12 Noroeste 39 Oeste 2.4 -- -- 96
2019-12-01 00:00:00 8.2 5 Oeste 12 Oeste 0 -- -- 97
2019-11-30 23:00:00 8.2 4 Este 38 Oeste 1 -- -- 96
2019-11-30 22:00:00 9.4 3 Sudeste 12 Sudeste 0.4 -- -- 89
2019-11-30 21:00:00 9.6 8 Sudeste 11 Sudeste 0 -- -- 84
2019-11-30 20:00:00 9.6 7 Sudeste 9 Sudeste 0 -- -- 82
2019-11-30 19:00:00 10.3 8 Sudeste 21 Nordeste 0 -- -- 80
2019-11-30 18:00:00 10.1 10 Este 18 Nordeste 0 -- -- 83
2019-11-30 17:00:00 11.1 3 Sudoeste 9 Este 0 -- -- 79
2019-11-30 16:00:00 12 6 Este 9 Este 0 -- -- 78
2019-11-30 15:00:00 11.9 4 Sudeste 9 Sudeste 0 -- -- 72
2019-11-30 14:00:00 10.5 3 Oeste 6 Sudoeste 0 -- -- 79
2019-11-30 13:00:00 9.6 2 Noroeste 10 Oeste 0 -- -- 81
2019-11-30 12:00:00 8.7 3 Oeste 6 Oeste 0 -- -- 81
2019-11-30 11:00:00 7.7 4 Sudoeste 6 Sudoeste 0 -- -- 83
2019-11-30 10:00:00 6.5 0 Calma 7 Sudoeste 0 -- -- 87
2019-11-30 09:00:00 5.4 5 Oeste 9 Sudoeste 0 -- -- 94
2019-11-30 08:00:00 4.2 4 Norte 9 Norte 0 -- -- 95
2019-11-30 07:00:00 4 2 Norte 9 Norte 0 -- -- 94
2019-11-30 06:00:00 2.9 8 Norte 10 Norte 0 -- -- 94
2019-11-30 05:00:00 2.9 3 Nordeste 10 Norte 0 -- -- 95
2019-11-30 04:00:00 2.9 2 Norte 10 Norte 0 -- -- 95
2019-11-30 03:00:00 3.2 4 Norte 9 Norte 0 -- -- 95
2019-11-30 02:00:00 3.5 3 Norte 10 Norte 0 -- -- 93
2019-11-30 01:00:00 3.6 5 Norte 10 Norte 0 -- -- 93
2019-11-30 00:00:00 4.1 4 Norte 11 Norte 0 -- -- 92
2019-11-29 23:00:00 4.6 6 Norte 12 Norte 0 -- -- 90
2019-11-29 22:00:00 4.6 10 Norte 13 Norte 0 -- -- 90
2019-11-29 21:00:00 5.3 9 Norte 13 Norte 0 -- -- 87
2019-11-29 20:00:00 6.4 4 Norte 13 Norte 0 -- -- 83
2019-11-29 19:00:00 6.4 9 Norte 13 Norte 0 -- -- 85
2019-11-29 18:00:00 10.8 7 Noroeste 19 Oeste 0 -- -- 66
2019-11-29 17:00:00 13.5 9 Oeste 18 Oeste 0 -- -- 57
2019-11-29 16:00:00 14 12 Noroeste 20 Oeste 0 -- -- 57
2019-11-29 15:00:00 13.9 13 Oeste 24 Oeste 0 -- -- 61
2019-11-29 14:00:00 13.6 12 Oeste 20 Oeste 0 -- -- 69
2019-11-29 13:00:00 13 12 Oeste 21 Oeste 0 -- -- 71
2019-11-29 12:00:00 12.5 13 Oeste 20 Oeste 0 -- -- 75
2019-11-29 11:00:00 11.3 9 Oeste 14 Sudoeste 0 -- -- 83
2019-11-29 10:00:00 10 6 Oeste 10 Oeste 0 -- -- 91
2019-11-29 09:00:00 7.7 3 Sudoeste 8 Noroeste 0 -- -- 96
2019-11-29 08:00:00 8.5 6 Noroeste 9 Noroeste 0 -- -- 94
2019-11-29 07:00:00 8.9 8 Noroeste 14 Oeste 0 -- -- 95
2019-11-29 06:00:00 8.3 6 Noroeste 13 Noroeste 0 -- -- 95
2019-11-29 05:00:00 7.8 4 Oeste 11 Noroeste 0 -- -- 93
2019-11-29 04:00:00 8.3 8 Noroeste 10 Noroeste 0 -- -- 92
2019-11-29 03:00:00 8.5 9 Noroeste 14 Noroeste 0 -- -- 91
2019-11-29 02:00:00 8.6 8 Noroeste 15 Noroeste 0 -- -- 89
2019-11-29 01:00:00 8.8 8 Noroeste 12 Oeste 0 -- -- 89
2019-11-29 00:00:00 9.4 9 Oeste 19 Oeste 0 -- -- 86
2019-11-28 23:00:00 9.6 13 Oeste 30 Oeste 0 -- -- 84
2019-11-28 22:00:00 10 18 Oeste 35 Noroeste 0 -- -- 82
2019-11-28 21:00:00 10 18 Oeste 28 Oeste 0 -- -- 84
2019-11-28 20:00:00 10.7 15 Oeste 27 Oeste 0 -- -- 80
2019-11-28 19:00:00 10.5 10 Oeste 19 Oeste 0 -- -- 82
2019-11-28 18:00:00 10.9 9 Oeste 19 Oeste 0 -- -- 80
2019-11-28 17:00:00 11.2 12 Oeste 27 Oeste 0 -- -- 79
2019-11-28 16:00:00 11.8 17 Oeste 30 Oeste 0 -- -- 76
2019-11-28 15:00:00 12.4 18 Oeste 31 Oeste 0 -- -- 72
2019-11-28 14:00:00 12 19 Oeste 32 Oeste 0 -- -- 74
2019-11-28 13:00:00 10.7 20 Oeste 33 Oeste 0 -- -- 81
2019-11-28 12:00:00 11 18 Oeste 27 Oeste 0 -- -- 77
2019-11-28 11:00:00 10.6 13 Oeste 19 Oeste 0 -- -- 78
2019-11-28 10:00:00 9.2 10 Oeste 15 Oeste 0 -- -- 86
2019-11-28 09:00:00 7 8 Noroeste 11 Noroeste 0 -- -- 94
2019-11-28 08:00:00 6 8 Noroeste 10 Oeste 0 -- -- 96
2019-11-28 07:00:00 5.5 7 Noroeste 10 Oeste 0 -- -- 96
2019-11-28 06:00:00 6.2 8 Oeste 12 Oeste 0 -- -- 94
2019-11-28 05:00:00 6.9 9 Noroeste 14 Noroeste 0 -- -- 91
2019-11-28 04:00:00 6.8 8 Oeste 14 Oeste 0 -- -- 94
2019-11-28 03:00:00 6.6 11 Noroeste 13 Noroeste 0.2 -- -- 96
2019-11-28 02:00:00 6.2 6 Noroeste 13 Noroeste 0 -- -- 94
2019-11-28 01:00:00 7.4 9 Oeste 16 Oeste 0.2 -- -- 92
2019-11-28 00:00:00 7.7 7 Noroeste 13 Noroeste 0 -- -- 89
2019-11-27 23:00:00 8 11 Noroeste 13 Noroeste 0 -- -- 86
2019-11-27 22:00:00 8.3 9 Noroeste 14 Oeste 0 -- -- 80
2019-11-27 21:00:00 8.6 8 Noroeste 11 Oeste 0 -- -- 76
2019-11-27 20:00:00 9.2 9 Noroeste 16 Noroeste 0 -- -- 72
2019-11-27 19:00:00 9.3 10 Oeste 27 Noroeste 0 -- -- 76
2019-11-27 18:00:00 9.8 17 Oeste 27 Oeste 0 -- -- 73
2019-11-27 17:00:00 10.4 15 Oeste 31 Oeste 0 -- -- 73
2019-11-27 16:00:00 11.2 19 Oeste 31 Oeste 0 -- -- 70
2019-11-27 15:00:00 11.7 15 Oeste 30 Oeste 0 -- -- 68
2019-11-27 14:00:00 11.7 17 Oeste 26 Oeste 0 -- -- 68
2019-11-27 06:00:00 -- -- -- -- -- -- -- -- --
2019-11-27 05:00:00 9.1 8 Oeste 19 Noroeste 0.2 -- -- 96
2019-11-27 04:00:00 9.7 11 Oeste 25 Oeste 0.4 -- -- 95
2019-11-27 03:00:00 9.3 6 Noroeste 23 Noroeste 0.4 -- -- 98
2019-11-27 02:00:00 9.4 4 Noroeste 22 Oeste 1 -- -- 98
2019-11-27 01:00:00 9.3 10 Noroeste 17 Norte 2 -- -- 98
2019-11-27 00:00:00 8.3 5 Este 7 Este 0.2 -- -- 94
2019-11-26 23:00:00 8.5 5 Este 8 Sudeste 0 -- -- 94
2019-11-26 22:00:00 8.5 2 Noroeste 9 Norte 0 -- -- 94
2019-11-26 21:00:00 8.8 4 Norte 10 Norte 0.4 -- -- 89
2019-11-26 20:00:00 8.7 5 Noroeste 12 Norte 0 -- -- 83
2019-11-26 19:00:00 7.8 8 Norte 10 Norte 0 -- -- 84
2019-11-26 18:00:00 8.8 9 Norte 10 Norte 0 -- -- 82
2019-11-26 17:00:00 11.2 8 Noroeste 14 Noroeste 0 -- -- 75
2019-11-26 16:00:00 11.6 8 Noroeste 14 Norte 0 -- -- 71
2019-11-26 15:00:00 12.4 8 Oeste 17 Noroeste 0 -- -- 70
2019-11-26 14:00:00 11.4 10 Noroeste 19 Noroeste 0 -- -- 75
2019-11-26 13:00:00 13 13 Oeste 18 Oeste 0 -- -- 68
2019-11-26 12:00:00 12.8 4 Sudoeste 10 Sudoeste 0 -- -- 71
2019-11-26 11:00:00 10.4 2 Sudeste 8 Sudoeste 0 -- -- 86
2019-11-26 10:00:00 7.7 3 Sudeste 9 Noroeste 0 -- -- 97
2019-11-26 09:00:00 4 2 Nordeste 12 Norte 0 -- -- 98
2019-11-26 08:00:00 3.3 9 Norte 12 Norte 0 -- -- 97
2019-11-26 07:00:00 3.2 8 Norte 10 Norte 0 -- -- 97
2019-11-26 06:00:00 2.9 8 Norte 10 Norte 0 -- -- 97
2019-11-26 05:00:00 3.9 6 Norte 10 Norte 0 -- -- 97
2019-11-26 04:00:00 3.7 8 Norte 10 Norte 0 -- -- 97
2019-11-26 03:00:00 4.4 3 Norte 9 Norte 0 -- -- 96
2019-11-26 02:00:00 4.4 6 Norte 9 Norte 0 -- -- 96
2019-11-26 01:00:00 4.4 8 Norte 12 Norte 0 -- -- 97
2019-11-26 00:00:00 4.8 4 Norte 11 Norte 0 -- -- 96
2019-11-25 23:00:00 5.3 7 Norte 11 Norte 0 -- -- 95
2019-11-25 22:00:00 5.6 8 Norte 11 Norte 0 -- -- 95
2019-11-25 21:00:00 6 7 Norte 11 Noroeste 0 -- -- 96
2019-11-25 20:00:00 6.2 7 Norte 11 Noroeste 0 -- -- 93
2019-11-25 19:00:00 7.1 8 Norte 12 Norte 0 -- -- 90
2019-11-25 18:00:00 9 8 Norte 10 Norte 0 -- -- 86
2019-11-25 17:00:00 11.9 6 Noroeste 16 Noroeste 0 -- -- 76
2019-11-25 16:00:00 12.6 12 Noroeste 19 Oeste 0 -- -- 72
2019-11-25 15:00:00 12.6 11 Oeste 21 Oeste 0 -- -- 69
2019-11-25 14:00:00 12.6 15 Oeste 22 Oeste 0 -- -- 68
2019-11-25 13:00:00 11.4 13 Noroeste 20 Noroeste 0 -- -- 73
2019-11-25 12:00:00 10.6 8 Noroeste 14 Oeste 0 -- -- 75
2019-11-25 11:00:00 9.5 5 Sudoeste 8 Sudoeste 0 -- -- 76
2019-11-25 10:00:00 6.8 5 Este 8 Sudeste 0 -- -- 84
2019-11-25 09:00:00 3.7 5 Noroeste 11 Norte 0 -- -- 94
2019-11-25 08:00:00 2 0 Calma 9 Norte 0 -- -- 96
2019-11-25 07:00:00 1.7 7 Norte 10 Norte 0 -- -- 96
2019-11-25 06:00:00 2.6 4 Sur 17 Noroeste 0 -- -- 94
2019-11-25 05:00:00 3.4 13 Noroeste 20 Noroeste 0 -- -- 90
2019-11-25 04:00:00 4.7 11 Noroeste 18 Noroeste 0 -- -- 86
2019-11-25 03:00:00 3.8 7 Noroeste 11 Noroeste 0 -- -- 90
2019-11-25 02:00:00 3.8 8 Noroeste 12 Norte 0 -- -- 91
2019-11-25 01:00:00 4.4 6 Noroeste 16 Noroeste 0 -- -- 92
2019-11-25 00:00:00 5 12 Noroeste 17 Noroeste 0 -- -- 88
2019-11-24 23:00:00 4.2 8 Noroeste 11 Noroeste 0 -- -- 90
2019-11-24 22:00:00 3 7 Norte 12 Norte 0 -- -- 92
2019-11-24 21:00:00 3.9 6 Norte 9 Noroeste 0 -- -- 88
2019-11-24 20:00:00 4.8 8 Noroeste 10 Noroeste 0 -- -- 88
2019-11-24 19:00:00 6.2 5 Norte 8 Norte 0 -- -- 83
2019-11-24 18:00:00 7.8 6 Norte 14 Oeste 0 -- -- 76
2019-11-24 17:00:00 10.2 10 Noroeste 15 Oeste 0 -- -- 64
2019-11-24 16:00:00 10.3 8 Noroeste 17 Oeste 0 -- -- 65
2019-11-24 15:00:00 10.5 10 Oeste 17 Oeste 0 -- -- 64
2019-11-24 14:00:00 10.2 9 Noroeste 23 Oeste 0 -- -- 65
2019-11-24 13:00:00 9.4 10 Oeste 21 Oeste 0 -- -- 66
2019-11-24 12:00:00 8.2 11 Noroeste 17 Oeste 0 -- -- 69
2019-11-24 11:00:00 7 10 Oeste 18 Oeste 0 -- -- 76
2019-11-24 10:00:00 4.8 12 Noroeste 17 Oeste 0 -- -- 83
2019-11-24 09:00:00 3.1 10 Noroeste 20 Noroeste 0 -- -- 87
2019-11-24 08:00:00 2.4 15 Noroeste 25 Noroeste 0 -- -- 88
2019-11-24 07:00:00 2.5 14 Noroeste 22 Noroeste 0 -- -- 87
2019-11-24 06:00:00 2.8 14 Noroeste 26 Noroeste 0 -- -- 87
2019-11-24 05:00:00 2 16 Noroeste 28 Noroeste 0 -- -- 91
2019-11-24 04:00:00 3.5 18 Noroeste 27 Noroeste 0 -- -- 85
2019-11-24 03:00:00 3 20 Noroeste 27 Noroeste 0 -- -- 87
2019-11-24 02:00:00 3.2 17 Noroeste 24 Noroeste 0 -- -- 86
2019-11-24 01:00:00 3.3 19 Noroeste 24 Oeste 0 -- -- 85
2019-11-24 00:00:00 3.1 18 Noroeste 27 Noroeste 0 -- -- 84
2019-11-23 23:00:00 3.4 17 Noroeste 26 Oeste 0 -- -- 82
2019-11-23 22:00:00 3.9 17 Noroeste 27 Oeste 0 -- -- 83
2019-11-23 21:00:00 5.1 16 Noroeste 26 Oeste 0 -- -- 80
2019-11-23 20:00:00 5.6 15 Noroeste 35 Oeste 0 -- -- 80
2019-11-23 19:00:00 6 21 Noroeste 30 Noroeste 0 -- -- 81
2019-11-23 18:00:00 6 18 Noroeste 30 Noroeste 0 -- -- 83
2019-11-23 17:00:00 6.6 22 Noroeste 36 Noroeste 0 -- -- 78
2019-11-23 16:00:00 7.1 22 Noroeste 40 Oeste 0 -- -- 83
2019-11-23 15:00:00 6.6 25 Noroeste 46 Oeste 0 -- -- 87
2019-11-23 14:00:00 6.8 24 Oeste 41 Oeste 0 -- -- 89
2019-11-23 13:00:00 6.3 15 Oeste 25 Oeste 0 -- -- 94
2019-11-23 12:00:00 6.5 13 Oeste 23 Oeste 0.2 -- -- 94
2019-11-23 11:00:00 6 17 Oeste 30 Oeste 0.2 -- -- 96
2019-11-23 10:00:00 6.6 13 Oeste 20 Oeste 0 -- -- 96
2019-11-23 09:00:00 5.9 3 Este 5 Este 0 -- -- 98
2019-11-23 08:00:00 5.5 4 Norte 6 Noroeste 0 -- -- 97
2019-11-23 07:00:00 5.8 0 Calma 6 Norte 0 -- -- 98
2019-11-23 06:00:00 6.2 4 Sudeste 8 Oeste 0 -- -- 97
2019-11-23 05:00:00 6.2 0 Calma 8 Norte 0 -- -- 97
2019-11-23 04:00:00 6.2 3 Norte 7 Norte 0 -- -- 96
2019-11-23 03:00:00 6.4 2 Nordeste 8 Noroeste 0 -- -- 95
2019-11-23 02:00:00 7.6 5 Oeste 12 Oeste 0 -- -- 95
2019-11-23 01:00:00 8.6 9 Noroeste 28 Sur 0.6 -- -- 95
2019-11-23 00:00:00 9.6 19 Sur 36 Sur 0.2 -- -- 96
2019-11-22 23:00:00 9.4 13 Sudeste 29 Sudeste 0.2 -- -- 99
2019-11-22 22:00:00 8.9 15 Sudeste 33 Sudeste 1.2 -- -- 99
2019-11-22 21:00:00 8.2 13 Sudeste 29 Sudeste 1 -- -- 99
2019-11-22 20:00:00 7.9 16 Este 32 Sudeste 1.6 -- -- 98
2019-11-22 19:00:00 7.6 17 Sudeste 40 Sudeste 2.6 -- -- 98
2019-11-22 18:00:00 7.6 21 Sudeste 33 Este 0.8 -- -- 97
2019-11-22 17:00:00 7.7 17 Sudeste 31 Este 0.8 -- -- 96
2019-11-22 16:00:00 7.9 16 Sudeste 29 Sudeste 0.4 -- -- 95
2019-11-22 15:00:00 8 15 Este 27 Este 1 -- -- 93
2019-11-22 14:00:00 8.8 19 Este 32 Este 0 -- -- 85
2019-11-22 13:00:00 8.9 15 Este 23 Este 0 -- -- 72
2019-11-22 12:00:00 7.5 17 Este 31 Este 0 -- -- 72
2019-11-22 11:00:00 6.9 19 Este 31 Este 0 -- -- 72
2019-11-22 10:00:00 6.6 17 Este 26 Nordeste 0 -- -- 73
2019-11-22 09:00:00 5.5 10 Este 18 Este 0 -- -- 79
2019-11-22 08:00:00 5.5 7 Este 15 Nordeste 0 -- -- 78
2019-11-22 07:00:00 5.5 11 Este 17 Este 0 -- -- 78
2019-11-22 06:00:00 5 5 Este 17 Nordeste 0 -- -- 81
2019-11-22 05:00:00 4.8 10 Este 15 Este 0 -- -- 82
2019-11-22 04:00:00 5 11 Nordeste 20 Nordeste 0 -- -- 82
2019-11-22 03:00:00 2.2 11 Nordeste 15 Nordeste 0 -- -- 94
2019-11-22 02:00:00 3.4 3 Nordeste 6 Este 0 -- -- 91
2019-11-22 01:00:00 4.2 3 Este 6 Sudeste 0 -- -- 88
2019-11-22 00:00:00 5 5 Oeste 12 Norte 0 -- -- 86
2019-11-21 23:00:00 4.4 4 Norte 8 Norte 0 -- -- 89
2019-11-21 22:00:00 4.5 0 Calma 6 Norte 0 -- -- 87
2019-11-21 21:00:00 4.8 0 Calma 9 Norte 0 -- -- 85
2019-11-21 20:00:00 4.8 5 Norte 10 Norte 0 -- -- 85
2019-11-21 19:00:00 6 5 Norte 8 Noroeste 0 -- -- 81
2019-11-21 18:00:00 5.8 3 Noroeste 13 Oeste 0 -- -- 79
2019-11-21 17:00:00 7.8 9 Oeste 18 Oeste 0 -- -- 70
2019-11-21 16:00:00 9.2 6 Noroeste 14 Oeste 0 -- -- 64
2019-11-21 15:00:00 8.6 8 Oeste 16 Oeste 0 -- -- 69
2019-11-21 14:00:00 8.6 10 Noroeste 19 Oeste 0 -- -- 66
2019-11-21 13:00:00 8.3 9 Oeste 21 Oeste 0 -- -- 67
2019-11-21 12:00:00 7.2 10 Oeste 18 Oeste 0 -- -- 69
2019-11-21 11:00:00 6.8 6 Oeste 11 Oeste 0 -- -- 68
2019-11-21 10:00:00 5.1 5 Noroeste 13 Noroeste 0 -- -- 76
2019-11-21 09:00:00 3.8 4 Norte 6 Noroeste 0 -- -- 84
2019-11-21 08:00:00 -- -- -- -- -- -- -- -- --
2019-11-21 07:00:00 -- -- -- -- -- -- -- -- --
2019-11-21 06:00:00 -- -- -- -- -- -- -- -- --
2019-11-21 05:00:00 -- -- -- -- -- -- -- -- --
2019-11-21 04:00:00 -- -- -- -- -- -- -- -- --
2019-11-21 03:00:00 -- -- -- -- -- -- -- -- --
2019-11-21 02:00:00 -- -- -- -- -- -- -- -- --
2019-11-21 01:00:00 -- -- -- -- -- -- -- -- --
2019-11-21 00:00:00 -- -- -- -- -- -- -- -- --
2019-11-20 23:00:00 -- -- -- -- -- -- -- -- --
2019-11-20 22:00:00 1.2 3 Norte 11 Norte 0 -- -- 88
2019-11-20 21:00:00 0.7 7 Norte 10 Norte 0 -- -- 88
2019-11-20 20:00:00 1.6 5 Norte 11 Norte 0 -- -- 87
2019-11-20 19:00:00 2 8 Norte 11 Norte 0 -- -- 85
2019-11-20 18:00:00 5.5 2 Sudeste 10 Sudeste 0 -- -- 71
2019-11-20 17:00:00 7.4 7 Sur 14 Sur 0 -- -- 64
2019-11-20 16:00:00 8.1 6 Sudeste 12 Sudeste 0 -- -- 61
2019-11-20 15:00:00 8.8 8 Sudeste 12 Este 0 -- -- 59
2019-11-20 14:00:00 9.4 5 Este 10 Este 0 -- -- 56
2019-11-20 13:00:00 8 7 Sudeste 11 Sudeste 0 -- -- 59
2019-11-20 12:00:00 5.8 5 Sudeste 8 Sudeste 0 -- -- 64
2019-11-20 11:00:00 4.2 4 Sudeste 8 Este 0 -- -- 73
2019-11-20 10:00:00 1.3 2 Noroeste 4 Norte 0 -- -- 83
2019-11-20 09:00:00 -1.1 0 Calma 10 Norte 0 -- -- 92
2019-11-20 08:00:00 -1.8 4 Norte 6 Norte 0 -- -- 92
2019-11-20 07:00:00 -2.2 6 Norte 12 Norte 0 -- -- 93
2019-11-20 06:00:00 -1.9 3 Noroeste 6 Norte 0 -- -- 92
2019-11-20 05:00:00 -1.6 3 Norte 9 Norte 0 -- -- 92
2019-11-20 04:00:00 -1.9 6 Norte 10 Norte 0 -- -- 92
2019-11-20 03:00:00 -2.1 6 Norte 9 Norte 0 -- -- 91
2019-11-20 02:00:00 -1.9 3 Norte 9 Noroeste 0 -- -- 90
2019-11-20 01:00:00 -1.6 3 Norte 9 Norte 0 -- -- 89
2019-11-20 00:00:00 -1.6 3 Norte 10 Norte 0 -- -- 89
2019-11-19 23:00:00 -1.4 7 Norte 10 Norte 0 -- -- 88
2019-11-19 22:00:00 -0.9 5 Norte 13 Norte 0 -- -- 87
2019-11-19 21:00:00 -0.6 8 Norte 10 Norte 0 -- -- 86
2019-11-19 20:00:00 -0.1 8 Norte 10 Norte 0 -- -- 85
2019-11-19 19:00:00 0.6 8 Noroeste 10 Norte 0 -- -- 83
2019-11-19 18:00:00 2.9 7 Norte 14 Oeste 0 -- -- 74
2019-11-19 17:00:00 6.6 9 Sudoeste 18 Oeste 0 -- -- 56
2019-11-19 16:00:00 8.5 8 Oeste 12 Oeste 0 -- -- 46
2019-11-19 15:00:00 8.3 9 Oeste 18 Oeste 0 -- -- 48
2019-11-19 14:00:00 7.4 12 Noroeste 20 Oeste 0 -- -- 46
2019-11-19 13:00:00 6.5 13 Noroeste 19 Oeste 0 -- -- 40
2019-11-19 12:00:00 6.9 10 Oeste 15 Sudoeste 0 -- -- 48
2019-11-19 11:00:00 4.5 4 Oeste 14 Oeste 0 -- -- 60
2019-11-19 10:00:00 2.1 5 Oeste 9 Noroeste 0 -- -- 74
2019-11-19 09:00:00 -1.4 4 Norte 14 Norte 0 -- -- 84
2019-11-19 08:00:00 -2.8 7 Norte 9 Norte 0 -- -- 86
2019-11-19 07:00:00 -2.5 6 Norte 12 Norte 0 -- -- 87
2019-11-19 06:00:00 -2.5 5 Norte 13 Norte 0 -- -- 85
2019-11-19 05:00:00 -2.2 9 Norte 12 Norte 0 -- -- 84
2019-11-19 04:00:00 -1.6 8 Norte 12 Norte 0 -- -- 80
2019-11-19 03:00:00 -0.8 5 Noroeste 9 Norte 0 -- -- 75
2019-11-19 02:00:00 0.5 4 Este 17 Nordeste 0 -- -- 71
2019-11-19 01:00:00 -0.4 8 Nordeste 18 Nordeste 0 -- -- 78
2019-11-19 00:00:00 2.8 14 Nordeste 20 Nordeste 0 -- -- 65
2019-11-18 23:00:00 2.8 8 Nordeste 17 Nordeste 0 -- -- 75
2019-11-18 22:00:00 0.6 8 Noroeste 13 Norte 0 -- -- 90
2019-11-18 21:00:00 0.6 6 Norte 12 Norte 0 -- -- 89
2019-11-18 20:00:00 1.7 7 Noroeste 10 Norte 0 -- -- 88
2019-11-18 19:00:00 3.9 3 Nordeste 15 Noroeste 0 -- -- 82
2019-11-18 18:00:00 5.8 10 Noroeste 17 Oeste 0 -- -- 78
2019-11-18 17:00:00 8 12 Oeste 21 Oeste 0 -- -- 69
2019-11-18 16:00:00 8.8 14 Oeste 23 Oeste 0 -- -- 60
2019-11-18 15:00:00 9 13 Oeste 21 Oeste 0 -- -- 63
2019-11-18 14:00:00 8.5 13 Oeste 23 Oeste 0 -- -- 70
2019-11-18 13:00:00 9.5 8 Sur 14 Oeste 0 -- -- 66
2019-11-18 12:00:00 8.5 4 Sur 8 Sudoeste 0 -- -- 71
2019-11-18 11:00:00 6.2 6 Sur 10 Este 0 -- -- 81
2019-11-18 10:00:00 4.9 5 Sudeste 15 Este 0 -- -- 90
2019-11-18 09:00:00 2.1 4 Sur 12 Nordeste 0 -- -- 99
2019-11-18 08:00:00 0.4 3 Nordeste 11 Norte 0 -- -- 98
2019-11-18 07:00:00 0.3 6 Noroeste 9 Norte 0 -- -- 97
2019-11-18 06:00:00 1.4 6 Noroeste 11 Oeste 0 -- -- 97
2019-11-18 05:00:00 2.2 5 Nordeste 10 Noroeste 0 -- -- 96
2019-11-18 04:00:00 1.6 6 Norte 10 Norte 0 -- -- 97
2019-11-18 03:00:00 0.8 3 Noroeste 12 Norte 0 -- -- 97
2019-11-18 02:00:00 0.3 6 Norte 9 Norte 0 -- -- 96
2019-11-18 01:00:00 0.6 8 Norte 14 Norte 0 -- -- 97
2019-11-18 00:00:00 1.4 4 Noroeste 10 Norte 0 -- -- 96
2019-11-17 23:00:00 1.9 6 Norte 12 Noroeste 0 -- -- 96
2019-11-17 22:00:00 2.1 5 Noroeste 9 Noroeste 0 -- -- 94
2019-11-17 21:00:00 4.3 6 Noroeste 10 Noroeste 0 -- -- 92
2019-11-17 20:00:00 5.1 7 Noroeste 12 Noroeste 0 -- -- 90
2019-11-17 19:00:00 5.5 8 Oeste 17 Oeste 0 -- -- 88
2019-11-17 18:00:00 5.6 12 Oeste 26 Oeste 0 -- -- 86
2019-11-17 17:00:00 6.3 15 Oeste 26 Oeste 0 -- -- 84
2019-11-17 16:00:00 7.3 8 Noroeste 19 Oeste 0 -- -- 83
2019-11-17 15:00:00 7.1 11 Oeste 23 Oeste 0 -- -- 83
2019-11-17 14:00:00 5.5 12 Oeste 22 Oeste 0 -- -- 83
2019-11-17 13:00:00 5 15 Noroeste 24 Oeste 0 -- -- 79
2019-11-17 12:00:00 4.4 9 Noroeste 15 Noroeste 0 -- -- 79
2019-11-17 11:00:00 3.1 7 Oeste 12 Norte 0 -- -- 85
2019-11-17 10:00:00 0.7 2 Sur 9 Norte 0 -- -- 95
2019-11-17 09:00:00 -0.7 2 Norte 8 Norte 0 -- -- 97
2019-11-17 08:00:00 -1.4 3 Este 9 Norte 0 -- -- 95
2019-11-17 07:00:00 -1.4 8 Norte 12 Norte 0 -- -- 96
2019-11-17 06:00:00 -1.8 6 Norte 10 Norte 0 -- -- 96
2019-11-17 05:00:00 -1.6 3 Norte 10 Norte 0 -- -- 96
2019-11-17 04:00:00 -1.3 2 Sudoeste 8 Norte 0 -- -- 96
2019-11-17 03:00:00 -1.1 6 Norte 10 Norte 0 -- -- 96
2019-11-17 02:00:00 -1 7 Norte 10 Norte 0 -- -- 96
2019-11-17 01:00:00 -0.7 6 Norte 10 Norte 0 -- -- 94
2019-11-17 00:00:00 0.3 7 Noroeste 14 Noroeste 0 -- -- 90
2019-11-16 23:00:00 1.3 11 Noroeste 17 Noroeste 0 -- -- 90
2019-11-16 22:00:00 1.4 11 Noroeste 20 Noroeste 0 -- -- 91
2019-11-16 21:00:00 1.1 10 Noroeste 23 Oeste 0 -- -- 93
2019-11-16 20:00:00 1.4 13 Noroeste 27 Oeste 0 -- -- 97
2019-11-16 19:00:00 1.8 18 Oeste 28 Noroeste 0 -- -- 96
2019-11-16 18:00:00 2.1 18 Oeste 28 Oeste 0 -- -- 94
2019-11-16 17:00:00 2.7 15 Oeste 25 Oeste 0 -- -- 91
2019-11-16 16:00:00 3.2 16 Noroeste 27 Oeste 0 -- -- 83
2019-11-16 15:00:00 3.8 18 Oeste 27 Oeste 0 -- -- 81
2019-11-16 14:00:00 4.6 13 Oeste 23 Oeste 0 -- -- 73
2019-11-16 13:00:00 4 14 Oeste 20 Oeste 0 -- -- 79
2019-11-16 12:00:00 5.2 8 Este 13 Este 0 -- -- 78
2019-11-16 11:00:00 3.4 6 Sudeste 12 Sudeste 0 -- -- 78
2019-11-16 10:00:00 0.3 7 Oeste 15 Noroeste 0 -- -- 91
2019-11-16 09:00:00 -1.4 4 Sudeste 8 Norte 0 -- -- 95
2019-11-16 08:00:00 -2.7 5 Nordeste 14 Nordeste 0 -- -- 94
2019-11-16 07:00:00 -2.8 4 Nordeste 9 Norte 0 -- -- 95
2019-11-16 06:00:00 -2 10 Norte 14 Norte 0 -- -- 94
2019-11-16 05:00:00 -1.7 8 Norte 14 Norte 0 -- -- 95
2019-11-16 04:00:00 -1.4 6 Norte 11 Noroeste 0 -- -- 96
2019-11-16 03:00:00 -0.7 7 Norte 15 Noroeste 0 -- -- 95
2019-11-16 02:00:00 -0.6 4 Noroeste 14 Nordeste 0 -- -- 98
2019-11-16 01:00:00 -0.1 10 Este 14 Este 0 -- -- 98
2019-11-16 00:00:00 -0.4 6 Nordeste 13 Norte 0 -- -- 97
2019-11-15 23:00:00 -0.6 8 Norte 11 Norte 0 -- -- 97
2019-11-15 22:00:00 0.4 4 Norte 13 Norte 0 -- -- 96
2019-11-15 21:00:00 0.6 12 Noroeste 15 Noroeste 0 -- -- 98
2019-11-15 20:00:00 0.1 7 Norte 10 Norte 0 -- -- 97
2019-11-15 19:00:00 1.3 5 Norte 10 Noroeste 0 -- -- 94
2019-11-15 18:00:00 3 6 Norte 11 Oeste 0 -- -- 96
2019-11-15 17:00:00 3.2 8 Oeste 19 Oeste 0 -- -- 95
2019-11-15 16:00:00 2.9 12 Noroeste 22 Oeste 0 -- -- 96
2019-11-15 15:00:00 2.7 10 Oeste 24 Oeste 0.6 -- -- 92
2019-11-15 14:00:00 3.6 13 Oeste 27 Oeste 0 -- -- 85
2019-11-15 13:00:00 2.9 9 Noroeste 20 Oeste 0 -- -- 88
2019-11-15 12:00:00 4.2 9 Oeste 22 Oeste 0 -- -- 78
2019-11-15 11:00:00 3.6 8 Oeste 14 Oeste 0 -- -- 73
2019-11-15 10:00:00 2.5 2 Sudoeste 6 Oeste 0 -- -- 82
2019-11-15 09:00:00 -0.3 0 Calma 9 Norte 0 -- -- 92
2019-11-15 08:00:00 -2.2 8 Norte 11 Norte 0 -- -- 94
2019-11-15 07:00:00 -1.8 8 Norte 13 Norte 0 -- -- 94
2019-11-15 06:00:00 -1.5 6 Noroeste 9 Norte 0 -- -- 92
2019-11-15 05:00:00 -1.2 7 Norte 9 Norte 0 -- -- 92
2019-11-15 04:00:00 -0.3 5 Norte 12 Norte 0 -- -- 91
2019-11-15 03:00:00 -0.8 10 Norte 14 Norte 0 -- -- 93
2019-11-15 02:00:00 -1.3 3 Este 9 Norte 0 -- -- 92
2019-11-15 01:00:00 -1 4 Nordeste 12 Norte 0 -- -- 92
2019-11-15 00:00:00 -0.7 8 Norte 11 Norte 0 -- -- 92